Дата Пункты Температура Давл., мм. Влажн., % Ветер Погодные явления
Воздуха Воды Направл. Скорость
20.04.16 06:00 Одесса 7.0 14.0 755 94 Пн-З 7 18 часов
20.04.16 03:00 Одесса 7.0 14.0 755 98 Пн-З 4 15 часов
20.04.16 12:00 Одесса 9.0 14.0 754 99 Пн 5 12 часов
20.04.16 09:00 Одесса 11.0 14.0 755 98 Пн-С 3 09 часов
20.04.16 06:00 Одесса 12.0 15.0 756 96 Пн 3 06 часов
20.04.16 03:00 Одесса 14.0 15.0 756 81 Пн-С 4 03 часа
19.04.16 09:00 Одесса 17.0 15.0 757 76 Пн 1 21 час
19.04.16 06:00 Одесса 19.0 15.0 757 75 Пн 2 18 часов
19.04.16 03:00 Одесса 20.0 15.0 757 73 Пн 3 15 часов
19.04.16 12:00 Одесса 20.0 14.0 757 77 Пн 3 12 часов
19.04.16 09:00 Одесса 18.0 14.0 757 83 Пн-З 2 09 часов
19.04.16 06:00 Одесса 18.0 12.0 756 75 З 2 06 часов
19.04.16 03:00 Одесса 14.0 12.0 755 95 Пд 1 03 часа
18.04.16 09:00 Одесса 18.0 13.0 755 71 Пд-З 1 21 час
18.04.16 06:00 Одесса 24.0 11.0 756 37 Пд 2 18 часов
18.04.16 03:00 Одесса 25.0 11.0 757 40 Пд 3 15 часов
18.04.16 12:00 Одесса 23.0 10.0 757 64 Пд 2 12 часов
18.04.16 09:00 Одесса 19.0 10.0 757 75 З 2 09 часов
18.04.16 06:00 Одесса 15.0 10.0 756 82 З 2 06 часов
18.04.16 03:00 Одесса 18.0 10.0 756 67 Пд-З 3 03 часа
Количество строк
351 352 353 354 355 356 357 358 359 360
Page 356 of 511